createdAt,value
2024-04-05T00:02:11.836Z,61.38
2024-04-05T00:04:38.977Z,59.82
2024-04-05T00:07:13.679Z,60.80
2024-04-05T00:09:41.556Z,61.14
2024-04-05T00:12:15.167Z,61.17
2024-04-05T00:14:42.044Z,59.99
2024-04-05T00:17:12.359Z,62.47
2024-04-05T00:19:41.790Z,62.84
2024-04-05T00:22:09.193Z,63.35
2024-04-05T00:24:39.247Z,62.39
2024-04-05T00:27:07.021Z,62.35
2024-04-05T00:29:36.927Z,60.50
2024-04-05T00:32:04.925Z,60.64
2024-04-05T00:34:31.924Z,60.66
2024-04-05T00:36:59.295Z,60.94
2024-04-05T00:39:26.224Z,59.44
2024-04-05T00:41:56.252Z,59.18
2024-04-05T00:44:28.973Z,61.50
2024-04-05T00:46:56.789Z,62.32
2024-04-05T00:49:24.321Z,61.52
2024-04-05T00:51:52.320Z,60.19
2024-04-05T00:54:20.786Z,61.29
2024-04-05T00:56:48.923Z,63.31
2024-04-05T00:59:15.929Z,62.87
2024-04-05T01:01:43.804Z,63.39
2024-04-05T01:04:11.906Z,64.45
2024-04-05T01:06:45.532Z,64.43
2024-04-05T01:09:13.147Z,63.87
2024-04-05T01:11:40.365Z,63.61
2024-04-05T01:14:07.558Z,63.14
2024-04-05T01:16:34.529Z,65.18
2024-04-05T01:19:03.418Z,64.06
2024-04-05T01:21:31.310Z,66.21
2024-04-05T01:24:01.655Z,64.77
2024-04-05T01:26:29.628Z,62.50
2024-04-05T01:28:57.029Z,63.00
2024-04-05T01:31:23.939Z,64.48
2024-04-05T01:33:51.107Z,62.81
2024-04-05T01:36:18.279Z,62.45
2024-04-05T01:38:51.587Z,61.92
2024-04-05T01:41:21.887Z,62.18
2024-04-05T01:43:49.067Z,62.22
2024-04-05T01:46:16.091Z,64.73
2024-04-05T01:48:43.248Z,62.08
2024-04-05T01:51:10.206Z,64.23
2024-04-05T01:53:37.433Z,63.38
2024-04-05T01:56:04.917Z,64.36
2024-04-05T01:58:35.627Z,65.23
2024-04-05T02:01:02.859Z,64.04
2024-04-05T02:03:36.052Z,64.27
2024-04-05T02:06:12.643Z,64.81
2024-04-05T02:08:40.127Z,66.55
2024-04-05T02:11:07.181Z,69.71
2024-04-05T02:13:35.044Z,70.23
2024-04-05T02:16:01.955Z,68.79
2024-04-05T02:18:35.301Z,66.98
2024-04-05T02:21:02.281Z,67.16
2024-04-05T02:23:29.537Z,64.59
2024-04-05T02:25:56.523Z,66.31
2024-04-05T02:28:23.717Z,64.86
2024-04-05T02:30:51.020Z,65.68
2024-04-05T02:33:17.975Z,64.96
2024-04-05T02:35:44.620Z,63.23
2024-04-05T02:38:11.644Z,65.55
2024-04-05T02:40:38.338Z,63.90
2024-04-05T02:43:05.522Z,67.18
2024-04-05T02:45:32.170Z,67.77
2024-04-05T02:47:59.754Z,65.66
2024-04-05T02:50:26.422Z,68.75
2024-04-05T02:52:53.349Z,70.25
2024-04-05T02:55:22.911Z,70.57
2024-04-05T02:57:49.781Z,67.73
2024-04-05T03:00:16.682Z,68.79
2024-04-05T03:02:43.641Z,69.20
2024-04-05T03:05:12.926Z,66.09
2024-04-05T03:07:39.864Z,64.20
2024-04-05T03:10:07.389Z,63.73
2024-04-05T03:12:34.621Z,64.19
2024-04-05T03:15:01.939Z,66.62
2024-04-05T03:17:35.010Z,67.67
2024-04-05T03:20:01.704Z,69.07
2024-04-05T03:22:29.340Z,69.44
2024-04-05T03:24:56.358Z,68.90
2024-04-05T03:27:23.239Z,69.52
2024-04-05T03:29:51.718Z,67.68
2024-04-05T03:32:18.632Z,66.75
2024-04-05T03:34:47.309Z,65.02
2024-04-05T03:37:17.030Z,66.45
2024-04-05T03:39:44.672Z,67.56
2024-04-05T03:42:11.641Z,67.45
2024-04-05T03:44:38.307Z,68.96
2024-04-05T03:47:05.388Z,67.23
2024-04-05T03:49:32.039Z,67.54
2024-04-05T03:51:58.923Z,65.86
2024-04-05T03:54:25.865Z,66.92
2024-04-05T03:56:54.573Z,64.90
2024-04-05T03:59:21.693Z,67.54
2024-04-05T04:01:51.457Z,68.14
2024-04-05T04:04:18.463Z,69.77
2024-04-05T04:06:45.165Z,69.65
2024-04-05T04:09:12.278Z,68.61
2024-04-05T04:11:39.332Z,69.15
2024-04-05T04:14:06.927Z,70.08
2024-04-05T04:16:33.580Z,70.46
2024-04-05T04:19:00.514Z,67.97
2024-04-05T04:21:27.150Z,69.15
2024-04-05T04:23:54.638Z,71.09
2024-04-05T04:26:21.333Z,71.22
2024-04-05T04:28:49.699Z,69.68
2024-04-05T04:31:20.837Z,71.17
2024-04-05T04:33:47.894Z,66.65
2024-04-05T04:36:15.009Z,69.41
2024-04-05T04:38:42.416Z,66.75
2024-04-05T04:41:09.116Z,69.20
2024-04-05T04:43:36.659Z,66.98
2024-04-05T04:46:03.656Z,66.78
2024-04-05T04:48:31.465Z,69.56
2024-04-05T04:50:58.177Z,69.25
2024-04-05T04:53:27.860Z,70.02
2024-04-05T04:55:54.526Z,65.36
2024-04-05T04:58:23.568Z,63.76
2024-04-05T05:00:50.460Z,64.69
2024-04-05T05:03:17.444Z,64.05
2024-04-05T05:05:44.779Z,65.79
2024-04-05T05:08:11.856Z,65.77
2024-04-05T05:10:39.412Z,69.98
2024-04-05T05:13:09.527Z,69.26
2024-04-05T05:15:36.854Z,67.92
2024-04-05T05:18:04.881Z,65.46
2024-04-05T05:20:34.632Z,65.55
2024-04-05T05:23:02.430Z,65.29
2024-04-05T05:25:29.150Z,67.36
2024-04-05T05:27:56.145Z,66.64
2024-04-05T05:30:22.813Z,69.41
2024-04-05T05:32:57.148Z,71.57
2024-04-05T05:35:24.020Z,66.09
2024-04-05T05:37:51.032Z,64.44
2024-04-05T05:40:18.342Z,65.86
2024-04-05T05:42:45.253Z,65.95
2024-04-05T05:45:11.927Z,65.66
2024-04-05T05:47:44.790Z,68.55
2024-04-05T05:50:11.980Z,69.81
2024-04-05T05:52:38.934Z,72.38
2024-04-05T05:55:06.792Z,70.95
2024-04-05T05:57:34.328Z,74.50
2024-04-05T06:00:01.464Z,75.26
2024-04-05T06:02:28.401Z,71.39
2024-04-05T06:04:55.061Z,72.81
2024-04-05T06:07:22.981Z,73.93
2024-04-05T06:09:52.410Z,71.96
2024-04-05T06:12:19.324Z,73.47
2024-04-05T06:14:54.625Z,73.99
2024-04-05T06:17:22.059Z,71.35
2024-04-05T06:19:53.964Z,71.68
2024-04-05T06:22:21.557Z,71.76
2024-04-05T06:24:51.747Z,72.55
2024-04-05T06:27:19.525Z,70.24
2024-04-05T06:29:49.420Z,70.76
2024-04-05T06:32:16.465Z,71.27
2024-04-05T06:34:43.968Z,67.07
2024-04-05T06:37:13.974Z,68.33
2024-04-05T06:39:43.255Z,67.19
2024-04-05T06:42:11.311Z,65.74
2024-04-05T06:44:39.732Z,68.28
2024-04-05T06:47:08.507Z,70.42
2024-04-05T06:49:37.642Z,70.80
2024-04-05T06:52:08.809Z,68.68
2024-04-05T06:54:40.136Z,65.13
2024-04-05T06:57:07.072Z,71.26
2024-04-05T06:59:36.145Z,72.09
2024-04-05T07:02:03.940Z,70.14
2024-04-05T07:04:31.700Z,68.36
2024-04-05T07:07:01.434Z,68.44
2024-04-05T07:09:30.039Z,71.63
2024-04-05T07:12:05.009Z,72.31
2024-04-05T07:14:32.205Z,68.15
2024-04-05T07:16:58.922Z,71.57
2024-04-05T07:19:25.972Z,73.64
2024-04-05T07:21:59.389Z,70.16
2024-04-05T07:24:26.351Z,71.57
2024-04-05T07:26:53.047Z,71.58
2024-04-05T07:29:20.033Z,69.73
2024-04-05T07:31:48.840Z,70.95
2024-04-05T07:34:16.437Z,71.87
2024-04-05T07:36:44.459Z,71.40
2024-04-05T07:39:12.818Z,69.49
2024-04-05T07:41:39.542Z,70.69
2024-04-05T07:44:07.250Z,66.66
2024-04-05T07:46:35.732Z,70.87
2024-04-05T07:49:02.670Z,70.68
2024-04-05T07:51:29.356Z,69.25
2024-04-05T07:53:56.264Z,68.99
2024-04-05T07:56:27.670Z,70.18
2024-04-05T07:58:54.672Z,69.39
2024-04-05T08:01:22.341Z,70.10
2024-04-05T08:03:49.262Z,69.48
2024-04-05T08:06:16.008Z,70.03
2024-04-05T08:08:45.245Z,69.14
2024-04-05T08:11:11.883Z,69.02
2024-04-05T08:13:39.436Z,70.59
2024-04-05T08:16:07.034Z,70.91
2024-04-05T08:18:34.408Z,70.96
2024-04-05T08:21:05.648Z,70.21
2024-04-05T08:23:32.624Z,70.81
2024-04-05T08:26:02.204Z,71.44
2024-04-05T08:28:29.226Z,69.10
2024-04-05T08:30:56.658Z,70.92
2024-04-05T08:33:23.705Z,71.70
2024-04-05T08:35:53.721Z,72.17
2024-04-05T08:38:20.717Z,72.16
2024-04-05T08:40:48.254Z,71.80
2024-04-05T08:43:17.240Z,70.98
2024-04-05T08:45:52.010Z,71.96
2024-04-05T08:48:21.764Z,70.47
2024-04-05T08:50:48.709Z,70.93
2024-04-05T08:53:17.830Z,71.89
2024-04-05T08:55:45.807Z,72.03
2024-04-05T08:58:13.904Z,71.52
2024-04-05T09:00:40.886Z,71.61
2024-04-05T09:03:12.060Z,70.56
2024-04-05T09:05:39.459Z,69.69
2024-04-05T09:08:08.966Z,68.52
2024-04-05T09:10:36.186Z,69.46
2024-04-05T09:13:05.074Z,69.94
2024-04-05T09:15:32.920Z,71.08
2024-04-05T09:17:59.924Z,69.30
2024-04-05T09:20:30.396Z,69.76
2024-04-05T09:23:02.559Z,68.82
2024-04-05T09:25:32.936Z,67.83
2024-04-05T09:28:07.886Z,67.94
2024-04-05T09:30:35.808Z,68.60
2024-04-05T09:33:02.923Z,68.10
2024-04-05T09:35:30.932Z,68.50
2024-04-05T09:37:58.647Z,67.31
2024-04-05T09:40:26.153Z,67.81
2024-04-05T09:42:54.479Z,68.33
2024-04-05T09:45:22.439Z,69.60
2024-04-05T09:47:50.572Z,72.74
2024-04-05T09:50:17.772Z,73.13
2024-04-05T09:52:50.983Z,73.65
2024-04-05T09:55:19.599Z,71.92
2024-04-05T09:57:49.684Z,72.60
2024-04-05T10:00:21.588Z,72.80
2024-04-05T10:02:52.305Z,73.38
2024-04-05T10:05:26.240Z,72.05
2024-04-05T10:07:54.362Z,72.05
2024-04-05T10:10:33.092Z,71.36
2024-04-05T10:13:12.602Z,72.28
2024-04-05T10:15:40.067Z,71.56
2024-04-05T10:18:07.221Z,73.76
2024-04-05T10:20:35.014Z,71.17
2024-04-05T10:23:04.126Z,71.31
2024-04-05T10:25:30.933Z,70.76
2024-04-05T10:27:57.908Z,71.77
2024-04-05T10:30:25.213Z,72.13
2024-04-05T10:33:01.273Z,69.95
2024-04-05T10:35:33.293Z,68.82
2024-04-05T10:38:14.105Z,69.02
2024-04-05T10:40:56.143Z,69.36
2024-04-05T10:43:23.089Z,69.30
2024-04-05T10:45:54.185Z,69.80
2024-04-05T10:48:22.320Z,68.47
2024-04-05T10:50:49.547Z,70.08
2024-04-05T10:53:17.241Z,69.64
2024-04-05T10:55:45.127Z,68.92
2024-04-05T10:58:13.322Z,70.03
2024-04-05T11:00:40.841Z,69.10
2024-04-05T11:03:11.259Z,68.66
2024-04-05T11:05:38.250Z,69.19
2024-04-05T11:08:06.638Z,68.90
2024-04-05T11:10:38.295Z,68.45
2024-04-05T11:13:17.350Z,67.56
2024-04-05T11:15:47.934Z,67.37
2024-04-05T11:18:16.614Z,67.39
2024-04-05T11:20:48.448Z,66.20
2024-04-05T11:23:16.960Z,66.55
2024-04-05T11:25:52.397Z,65.65
2024-04-05T11:28:26.971Z,66.98
2024-04-05T11:30:54.629Z,66.99
2024-04-05T11:33:22.217Z,65.85
2024-04-05T11:35:49.186Z,68.06
2024-04-05T11:38:16.371Z,66.34
2024-04-05T11:40:43.044Z,68.99
2024-04-05T11:43:10.011Z,66.31
2024-04-05T11:45:36.731Z,69.71
2024-04-05T11:48:08.017Z,67.97
2024-04-05T11:50:43.058Z,67.52
2024-04-05T11:53:09.971Z,66.22
2024-04-05T11:55:36.662Z,65.27
2024-04-05T11:58:04.986Z,64.79
2024-04-05T12:00:31.687Z,63.96
2024-04-05T12:02:58.760Z,64.09
2024-04-05T12:05:25.434Z,64.85
2024-04-05T12:07:53.056Z,64.72
2024-04-05T12:10:19.937Z,64.61
2024-04-05T12:12:46.876Z,64.04
2024-04-05T12:15:15.962Z,62.99
2024-04-05T12:17:42.938Z,63.08
2024-04-05T12:20:12.545Z,62.83
2024-04-05T12:22:39.719Z,63.96
2024-04-05T12:25:08.118Z,61.95
2024-04-05T12:27:35.142Z,61.28
2024-04-05T12:30:01.763Z,62.90
2024-04-05T12:32:31.708Z,61.40
2024-04-05T12:35:00.003Z,60.62
2024-04-05T12:37:28.091Z,59.61
2024-04-05T12:39:55.465Z,58.02
2024-04-05T12:42:23.440Z,57.38
2024-04-05T12:44:50.745Z,56.49
2024-04-05T12:47:17.676Z,57.88
2024-04-05T12:49:44.348Z,58.17
2024-04-05T12:52:11.348Z,58.07
2024-04-05T12:54:38.022Z,59.63
2024-04-05T12:57:05.770Z,60.26
2024-04-05T12:59:33.239Z,60.46
2024-04-05T13:02:00.598Z,58.99
2024-04-05T13:04:30.059Z,59.46
2024-04-05T13:07:00.806Z,59.46
2024-04-05T13:09:27.471Z,60.55
2024-04-05T13:11:54.396Z,58.55
2024-04-05T13:14:24.944Z,59.11
2024-04-05T13:16:55.540Z,60.88
2024-04-05T13:19:22.334Z,60.12
2024-04-05T13:21:49.390Z,60.56
2024-04-05T13:24:16.069Z,60.95
2024-04-05T13:26:43.021Z,60.48
2024-04-05T13:29:09.720Z,60.85
2024-04-05T13:31:37.353Z,60.41
2024-04-05T13:34:07.060Z,61.39
2024-04-05T13:36:34.432Z,63.05
2024-04-05T13:39:01.159Z,63.62
2024-04-05T13:41:31.183Z,66.24
2024-04-05T13:44:04.020Z,68.87
2024-04-05T13:46:31.222Z,74.31
2024-04-05T13:49:06.946Z,76.15
2024-04-05T13:51:35.464Z,76.99
2024-04-05T13:54:03.893Z,77.62
2024-04-05T13:56:33.815Z,77.34
2024-04-05T13:59:00.501Z,75.55
2024-04-05T14:01:27.479Z,76.42
2024-04-05T14:03:54.148Z,78.39
2024-04-05T14:06:21.101Z,77.25
2024-04-05T14:08:49.890Z,75.53
2024-04-05T14:11:17.264Z,74.22
2024-04-05T14:13:46.816Z,72.18
2024-04-05T14:16:15.050Z,72.57
2024-04-05T14:18:48.144Z,74.40
2024-04-05T14:21:14.743Z,74.82
2024-04-05T14:23:41.671Z,74.06
2024-04-05T14:26:09.013Z,75.31
2024-04-05T14:28:35.973Z,75.78
2024-04-05T14:31:14.717Z,74.43
2024-04-05T14:33:58.281Z,70.70
2024-04-05T14:36:26.470Z,72.98
2024-04-05T14:38:54.412Z,69.83
2024-04-05T14:41:21.768Z,70.71
2024-04-05T14:43:49.247Z,68.98
2024-04-05T14:46:15.953Z,66.73
2024-04-05T14:48:43.339Z,69.70
2024-04-05T14:51:10.095Z,69.49
2024-04-05T14:53:38.095Z,69.96
2024-04-05T14:56:06.906Z,66.13
2024-04-05T14:58:34.851Z,69.23
2024-04-05T15:03:31.272Z,67.38
2024-04-05T15:06:03.550Z,66.50
2024-04-05T15:08:31.801Z,70.46
2024-04-05T15:10:58.517Z,67.53
2024-04-05T15:13:29.522Z,67.08
2024-04-05T15:15:57.068Z,66.77
2024-04-05T15:18:25.053Z,65.67
2024-04-05T15:20:53.311Z,67.97
2024-04-05T15:23:24.428Z,66.59
2024-04-05T15:25:52.474Z,66.77
2024-04-05T15:28:19.787Z,65.51
2024-04-05T15:30:52.575Z,64.75
2024-04-05T15:33:20.516Z,68.23
2024-04-05T15:35:56.070Z,66.84
2024-04-05T15:38:25.476Z,66.63
2024-04-05T15:41:04.152Z,66.81
2024-04-05T15:43:32.130Z,66.57
2024-04-05T15:46:00.895Z,65.53
2024-04-05T15:48:28.708Z,65.77
2024-04-05T15:51:01.172Z,64.77
2024-04-05T15:53:30.416Z,65.93
2024-04-05T15:56:00.977Z,64.95
2024-04-05T15:58:29.372Z,65.84
2024-04-05T16:00:56.079Z,65.11
2024-04-05T16:03:23.045Z,64.37
2024-04-05T16:05:51.368Z,63.39
2024-04-05T16:08:18.568Z,62.94
2024-04-05T16:10:52.976Z,61.85
2024-04-05T16:13:20.261Z,63.70
2024-04-05T16:15:47.327Z,62.68
2024-04-05T16:18:14.770Z,62.03
2024-04-05T16:20:41.997Z,63.55
2024-04-05T16:23:09.920Z,62.83
2024-04-05T16:25:36.989Z,62.08
2024-04-05T16:28:06.021Z,61.61
2024-04-05T16:30:39.408Z,61.86
2024-04-05T16:33:08.607Z,62.64
2024-04-05T16:35:35.657Z,63.39
2024-04-05T16:38:03.767Z,63.21
2024-04-05T16:40:31.399Z,62.23
2024-04-05T16:42:58.615Z,64.36
2024-04-05T16:45:26.277Z,63.33
2024-04-05T16:47:54.716Z,63.83
2024-04-05T16:50:21.816Z,64.91
2024-04-05T16:52:50.193Z,63.01
2024-04-05T16:55:17.417Z,63.65
2024-04-05T16:57:50.170Z,63.59
2024-04-05T17:00:19.328Z,63.88
2024-04-05T17:02:52.633Z,63.67
2024-04-05T17:05:21.982Z,64.30
2024-04-05T17:07:52.056Z,63.61
2024-04-05T17:10:26.897Z,64.63
2024-04-05T17:12:56.660Z,63.37
2024-04-05T17:15:24.012Z,63.63
2024-04-05T17:17:51.930Z,62.05
2024-04-05T17:20:19.850Z,64.56
2024-04-05T17:22:49.453Z,62.56
2024-04-05T17:25:16.799Z,63.64
2024-04-05T17:27:46.354Z,63.31
2024-04-05T17:30:14.355Z,63.91
2024-04-05T17:32:41.371Z,63.21
2024-04-05T17:35:08.644Z,63.66
2024-04-05T17:37:35.697Z,62.68
2024-04-05T17:40:03.159Z,62.07
2024-04-05T17:42:30.079Z,62.94
2024-04-05T17:44:57.269Z,62.63
2024-04-05T17:47:25.053Z,63.59
2024-04-05T17:49:52.246Z,62.29
2024-04-05T17:52:19.162Z,63.20
2024-04-05T17:54:46.387Z,61.95
2024-04-05T17:57:13.395Z,62.62
2024-04-05T17:59:40.618Z,61.68
2024-04-05T18:02:07.527Z,63.14
2024-04-05T18:04:38.219Z,62.04
2024-04-05T18:07:05.388Z,63.68
2024-04-05T18:09:35.540Z,63.13
2024-04-05T18:12:02.490Z,63.35
2024-04-05T18:14:29.760Z,61.86
2024-04-05T18:16:56.690Z,62.81
2024-04-05T18:19:23.964Z,62.98
2024-04-05T18:21:51.608Z,63.05
2024-04-05T18:24:18.844Z,62.72
2024-04-05T18:26:45.738Z,62.04
2024-04-05T18:29:13.019Z,64.02
2024-04-05T18:31:39.940Z,62.79
2024-04-05T18:34:07.928Z,63.17
2024-04-05T18:36:35.519Z,61.63
2024-04-05T18:39:04.992Z,62.81
2024-04-05T18:41:34.710Z,61.82
2024-04-05T18:44:01.910Z,61.71
2024-04-05T18:46:38.133Z,60.97
2024-04-05T18:49:06.508Z,60.76
2024-04-05T18:51:35.637Z,60.40
2024-04-05T18:54:06.330Z,61.51
2024-04-05T18:56:33.998Z,60.73
2024-04-05T18:59:01.376Z,60.34
2024-04-05T19:01:30.954Z,59.66
2024-04-05T19:04:01.787Z,60.88
2024-04-05T19:06:30.168Z,61.49
2024-04-05T19:09:00.310Z,60.74
2024-04-05T19:11:27.675Z,60.52
2024-04-05T19:13:55.836Z,60.03
2024-04-05T19:16:22.722Z,60.67
2024-04-05T19:18:50.384Z,60.45
2024-04-05T19:21:17.068Z,60.36
2024-04-05T19:23:44.127Z,61.22
2024-04-05T19:26:10.963Z,62.28
2024-04-05T19:28:38.558Z,61.06
2024-04-05T19:31:06.738Z,60.39
2024-04-05T19:33:36.455Z,60.44
2024-04-05T19:36:04.871Z,61.03
2024-04-05T19:38:35.793Z,60.64
2024-04-05T19:41:05.269Z,60.06
2024-04-05T19:43:32.224Z,61.17
2024-04-05T19:45:59.594Z,61.16
2024-04-05T19:48:26.530Z,61.46
2024-04-05T19:50:53.345Z,60.89
2024-04-05T19:53:20.266Z,60.94
2024-04-05T19:55:49.124Z,62.70
2024-04-05T19:58:23.115Z,61.59
2024-04-05T20:00:55.990Z,61.49
2024-04-05T20:03:27.602Z,60.91
2024-04-05T20:05:57.956Z,61.71
2024-04-05T20:08:25.783Z,61.71
2024-04-05T20:10:53.030Z,61.24
2024-04-05T20:13:20.329Z,62.70
2024-04-05T20:15:46.959Z,61.27
2024-04-05T20:18:13.958Z,61.02
2024-04-05T20:20:41.598Z,59.78
2024-04-05T20:23:08.222Z,61.16
2024-04-05T20:25:35.222Z,62.11
2024-04-05T20:28:02.752Z,62.07
2024-04-05T20:30:47.754Z,61.11
2024-04-05T20:33:14.703Z,61.19
2024-04-05T20:35:42.246Z,61.13
2024-04-05T20:38:09.150Z,60.99
2024-04-05T20:40:36.063Z,61.51
2024-04-05T20:43:03.325Z,61.06
2024-04-05T20:45:29.943Z,62.46
2024-04-05T20:47:56.915Z,64.01
2024-04-05T20:50:24.426Z,63.46
2024-04-05T20:52:51.996Z,62.92
2024-04-05T20:55:18.640Z,62.49
2024-04-05T20:57:48.420Z,62.44
2024-04-05T21:00:15.921Z,61.46
2024-04-05T21:02:42.815Z,64.46
2024-04-05T21:05:09.430Z,63.94
2024-04-05T21:07:36.336Z,61.68
2024-04-05T21:10:04.335Z,63.18
2024-04-05T21:12:31.271Z,62.13
2024-04-05T21:14:57.898Z,61.38
2024-04-05T21:17:27.620Z,61.19
2024-04-05T21:20:04.418Z,61.15
2024-04-05T21:22:34.523Z,61.16
2024-04-05T21:25:01.165Z,61.74
2024-04-05T21:27:29.167Z,63.54
2024-04-05T21:29:57.729Z,63.59
2024-04-05T21:32:24.712Z,63.43
2024-04-05T21:34:52.438Z,64.26
2024-04-05T21:37:20.254Z,63.44
2024-04-05T21:39:46.920Z,64.70
2024-04-05T21:42:13.815Z,62.79
2024-04-05T21:44:41.120Z,62.95
2024-04-05T21:47:11.140Z,64.82
2024-04-05T21:52:08.747Z,64.62
2024-04-05T21:54:35.424Z,66.27
2024-04-05T21:57:03.496Z,66.30
2024-04-05T21:59:30.613Z,66.16
2024-04-05T22:01:58.162Z,67.47
2024-04-05T22:04:25.030Z,66.03
2024-04-05T22:06:54.725Z,67.46
2024-04-05T22:09:21.606Z,66.74
2024-04-05T22:11:48.796Z,65.94
2024-04-05T22:14:20.594Z,66.52
2024-04-05T22:16:51.912Z,65.95
2024-04-05T22:19:19.211Z,66.77
2024-04-05T22:21:48.914Z,66.55
2024-04-05T22:24:15.556Z,66.82
2024-04-05T22:26:51.617Z,66.49
2024-04-05T22:29:18.315Z,67.13
2024-04-05T22:31:45.266Z,66.94
2024-04-05T22:34:11.898Z,68.13
2024-04-05T22:36:39.531Z,67.00
2024-04-05T22:39:08.897Z,67.81
2024-04-05T22:41:37.493Z,68.74
2024-04-05T22:44:04.495Z,68.08
2024-04-05T22:46:31.889Z,68.76
2024-04-05T22:48:58.519Z,65.73
2024-04-05T22:51:25.508Z,65.55
2024-04-05T22:53:52.792Z,66.74
2024-04-05T22:56:19.751Z,66.21
2024-04-05T22:58:46.488Z,65.13
2024-04-05T23:01:16.582Z,64.66
2024-04-05T23:03:44.168Z,62.40
2024-04-05T23:06:11.127Z,65.13
2024-04-05T23:08:37.736Z,64.35
2024-04-05T23:11:05.521Z,64.85
2024-04-05T23:13:32.145Z,65.77
2024-04-05T23:15:59.065Z,65.17
2024-04-05T23:18:25.680Z,64.09
2024-04-05T23:20:52.597Z,65.81
2024-04-05T23:23:19.316Z,64.90
2024-04-05T23:25:48.379Z,64.90
2024-04-05T23:28:15.709Z,65.39
2024-04-05T23:30:42.643Z,65.12
2024-04-05T23:33:12.700Z,65.40
2024-04-05T23:35:39.644Z,65.16
2024-04-05T23:38:06.289Z,65.31
2024-04-05T23:40:33.221Z,66.79
2024-04-05T23:42:59.866Z,66.74
2024-04-05T23:45:27.411Z,64.64
2024-04-05T23:47:54.055Z,65.70
2024-04-05T23:50:20.939Z,66.37
2024-04-05T23:52:47.601Z,65.97
2024-04-05T23:55:14.616Z,62.96
2024-04-05T23:57:41.291Z,62.42
